Time;durP1;ratioP1;P1;durP2;ratioP2;P2;SDS_P1;SDS_P2;PMS_P1;PMS_P2;Temp;Humidity;BMP_temperature;BMP_pressure;BME280_temperature;BME280_humidity;BME280_pressure;Samples;Min_cycle;Max_cycle;Signal;HPM_P1;HPM_P2
2021/10/10 00:09:10;;;;;;;4.30;2.53;;;13.00;99.90;;;;;;5070863;23;20235;-87
2021/10/10 00:11:45;;;;;;;3.23;2.57;;;13.00;99.90;;;;;;5034904;28;20216;-87
2021/10/10 00:14:17;;;;;;;5.00;2.37;;;13.00;99.90;;;;;;5027504;28;20209;-88
2021/10/10 00:16:48;;;;;;;5.53;2.57;;;13.00;99.90;;;;;;5020240;28;20609;-86
2021/10/10 00:19:20;;;;;;;3.10;2.23;;;13.00;99.90;;;;;;5022812;28;20352;-87
2021/10/10 00:21:51;;;;;;;5.17;2.30;;;12.90;99.90;;;;;;5034634;28;20209;-86
2021/10/10 00:24:23;;;;;;;4.63;1.97;;;12.90;99.90;;;;;;5030371;28;20240;-87
2021/10/10 00:26:56;;;;;;;4.03;2.23;;;12.80;99.90;;;;;;5032555;28;20241;-87
2021/10/10 00:29:29;;;;;;;6.50;2.33;;;12.80;99.90;;;;;;5033206;28;20202;-88
2021/10/10 00:32:01;;;;;;;5.93;2.53;;;12.80;99.90;;;;;;5016157;28;20217;-87
2021/10/10 00:34:33;;;;;;;2.83;2.23;;;12.70;99.90;;;;;;5013831;28;20214;-88
2021/10/10 00:37:05;;;;;;;5.80;2.60;;;12.60;99.90;;;;;;5014646;28;20210;-88
2021/10/10 00:39:37;;;;;;;4.87;3.10;;;12.50;99.90;;;;;;5020652;28;20209;-88
2021/10/10 00:42:10;;;;;;;4.93;2.50;;;12.50;99.90;;;;;;5020057;28;20276;-89
2021/10/10 00:44:45;;;;;;;5.43;2.90;;;12.40;99.90;;;;;;5153185;22;20248;-85
2021/10/10 00:47:18;;;;;;;5.30;3.10;;;12.30;99.90;;;;;;5038576;28;20204;-88
2021/10/10 00:49:50;;;;;;;4.03;2.73;;;12.30;99.90;;;;;;5034996;28;20221;-88
2021/10/10 00:52:22;;;;;;;5.30;3.13;;;12.20;99.90;;;;;;5023399;28;20206;-88
2021/10/10 00:54:56;;;;;;;6.27;2.60;;;12.20;99.90;;;;;;5032428;28;20236;-89
2021/10/10 01:00:18;;;;;;;4.37;2.70;;;12.10;99.90;;;;;;5033043;28;20201;-88
2021/10/10 01:02:57;;;;;;;5.33;2.67;;;12.00;99.90;;;;;;5019224;28;20216;-90
2021/10/10 01:05:29;;;;;;;7.87;3.13;;;12.00;99.90;;;;;;5014495;28;20457;-93
2021/10/10 01:07:59;;;;;;;9.23;3.87;;;11.90;99.90;;;;;;5026858;28;20237;-91
2021/10/10 01:10:32;;;;;;;4.90;2.60;;;11.90;99.90;;;;;;5025308;28;20214;-92
2021/10/10 01:13:10;;;;;;;8.20;3.37;;;11.80;99.90;;;;;;4999919;28;20194;-92
2021/10/10 01:15:41;;;;;;;6.50;3.10;;;11.80;99.90;;;;;;5035114;28;20185;-90
2021/10/10 01:18:13;;;;;;;6.37;3.27;;;11.70;99.90;;;;;;5036819;28;20197;-89
2021/10/10 01:20:49;;;;;;;12.43;4.57;;;11.70;99.90;;;;;;5036331;28;20213;-89
2021/10/10 01:23:21;;;;;;;7.90;3.60;;;11.70;99.90;;;;;;5037287;28;20201;-90
2021/10/10 01:25:52;;;;;;;6.73;4.03;;;11.60;99.90;;;;;;5036297;28;20210;-89
2021/10/10 01:28:27;;;;;;;5.80;3.90;;;11.70;99.90;;;;;;5030585;28;20228;-93
2021/10/10 01:30:59;;;;;;;7.47;3.63;;;11.70;99.90;;;;;;5030357;28;20235;-93
2021/10/10 01:33:34;;;;;;;5.50;3.77;;;11.70;99.90;;;;;;5012481;28;20244;-94
2021/10/10 01:36:15;;;;;;;9.30;4.40;;;11.70;99.90;;;;;;5033891;28;20210;-93
2021/10/10 01:38:47;;;;;;;5.33;3.77;;;11.70;99.90;;;;;;5033212;28;20248;-92
2021/10/10 01:41:19;;;;;;;12.93;4.87;;;11.70;99.90;;;;;;5029012;28;20209;-95
2021/10/10 01:43:51;;;;;;;6.60;4.30;;;11.60;99.90;;;;;;5029033;28;20220;-93
2021/10/10 01:46:23;;;;;;;6.47;4.77;;;11.60;99.90;;;;;;5009733;28;20261;-96
2021/10/10 01:48:55;;;;;;;7.70;5.10;;;11.60;99.90;;;;;;5029117;28;20202;-93
2021/10/10 01:51:29;;;;;;;8.63;4.30;;;11.60;99.90;;;;;;5025513;28;20236;-94
2021/10/10 01:54:01;;;;;;;10.17;4.20;;;11.60;99.90;;;;;;5018953;28;20213;-93
2021/10/10 01:56:33;;;;;;;6.57;3.63;;;11.70;99.90;;;;;;5027286;28;20205;-93
2021/10/10 01:59:14;;;;;;;4.57;3.43;;;11.60;99.90;;;;;;5032711;28;20216;-92
2021/10/10 02:01:46;;;;;;;6.10;3.80;;;11.60;99.90;;;;;;4999642;28;20206;-93
2021/10/10 02:04:19;;;;;;;5.63;3.63;;;11.50;99.90;;;;;;5013059;28;20236;-91
2021/10/10 02:06:53;;;;;;;5.23;4.17;;;11.50;99.90;;;;;;4648297;28;10000085;-92
2021/10/10 02:09:25;;;;;;;5.67;4.10;;;11.50;99.90;;;;;;4995076;28;20202;-94
2021/10/10 02:11:56;;;;;;;7.50;4.40;;;11.50;99.90;;;;;;5016283;28;20195;-91
2021/10/10 02:14:29;;;;;;;9.03;4.20;;;11.50;99.90;;;;;;5018073;28;20214;-93
2021/10/10 02:17:00;;;;;;;6.47;4.03;;;11.50;99.90;;;;;;5016241;28;20205;-90
2021/10/10 02:19:35;;;;;;;6.40;4.37;;;11.50;99.90;;;;;;5014045;28;20205;-89
2021/10/10 02:22:08;;;;;;;10.70;4.63;;;11.50;99.90;;;;;;5010436;28;20202;-91
2021/10/10 02:24:40;;;;;;;8.60;4.73;;;11.50;99.90;;;;;;5016488;28;20187;-89
2021/10/10 02:27:12;;;;;;;6.10;4.63;;;11.40;99.90;;;;;;5014028;28;20222;-91
2021/10/10 02:29:44;;;;;;;6.77;4.40;;;11.40;99.90;;;;;;5013148;28;20229;-91
2021/10/10 02:32:15;;;;;;;8.37;4.73;;;11.50;99.90;;;;;;5011555;28;20205;-90
2021/10/10 02:34:46;;;;;;;7.80;5.17;;;11.40;99.90;;;;;;5007989;28;20226;-91
2021/10/10 02:37:20;;;;;;;8.30;5.33;;;11.50;99.90;;;;;;5009139;28;20224;-91
2021/10/10 02:39:53;;;;;;;6.93;5.50;;;11.50;99.90;;;;;;5007906;28;20209;-91
2021/10/10 02:42:31;;;;;;;6.40;5.40;;;11.40;99.90;;;;;;5011001;28;20225;-92
2021/10/10 02:45:02;;;;;;;6.83;5.13;;;11.40;99.90;;;;;;5000984;28;20249;-92
2021/10/10 02:47:34;;;;;;;10.60;4.60;;;11.50;99.90;;;;;;5011372;28;20230;-92
2021/10/10 02:50:08;;;;;;;7.07;5.30;;;11.50;99.90;;;;;;5002418;28;20198;-92
2021/10/10 02:52:46;;;;;;;9.63;6.03;;;11.50;99.90;;;;;;4991253;28;20209;-92
2021/10/10 02:55:18;;;;;;;7.63;5.80;;;11.60;99.90;;;;;;4993361;28;20269;-93
2021/10/10 02:57:51;;;;;;;8.30;5.67;;;11.60;99.90;;;;;;5011366;28;20194;-92
2021/10/10 03:00:23;;;;;;;6.63;5.63;;;11.50;99.90;;;;;;4986197;28;20229;-90
2021/10/10 03:02:54;;;;;;;10.17;5.97;;;11.50;99.90;;;;;;5010034;28;20218;-91
2021/10/10 03:05:25;;;;;;;13.70;6.40;;;11.60;99.90;;;;;;5007115;28;20210;-89
2021/10/10 03:08:00;;;;;;;9.93;6.30;;;11.60;99.90;;;;;;5005828;28;20265;-90
2021/10/10 03:10:32;;;;;;;7.87;5.50;;;11.60;99.90;;;;;;4966528;28;20651;-91
2021/10/10 03:13:03;;;;;;;6.33;5.13;;;11.60;99.90;;;;;;5002678;28;20209;-90
2021/10/10 03:15:35;;;;;;;7.17;5.77;;;11.60;99.90;;;;;;4996548;28;20242;-91
2021/10/10 03:18:09;;;;;;;8.70;4.97;;;11.50;99.90;;;;;;4981925;28;20261;-91
2021/10/10 03:20:41;;;;;;;8.17;5.23;;;11.60;99.90;;;;;;4994854;28;20206;-91
2021/10/10 03:23:16;;;;;;;8.17;4.90;;;11.50;99.90;;;;;;5009124;28;20213;-91
2021/10/10 03:25:48;;;;;;;7.40;5.10;;;11.50;99.90;;;;;;5004513;28;20713;-91
2021/10/10 03:28:19;;;;;;;7.37;4.57;;;11.50;99.90;;;;;;4989797;28;20268;-92
2021/10/10 03:30:51;;;;;;;5.17;4.07;;;11.50;99.90;;;;;;4981722;28;20222;-92
2021/10/10 03:33:23;;;;;;;5.47;3.53;;;11.60;99.90;;;;;;5006706;28;20225;-91
2021/10/10 03:35:55;;;;;;;7.07;3.80;;;11.60;99.90;;;;;;5001693;28;20663;-91
2021/10/10 03:38:29;;;;;;;4.23;3.10;;;11.60;99.90;;;;;;5013301;28;20230;-91
2021/10/10 03:41:01;;;;;;;3.87;2.93;;;11.70;99.90;;;;;;5011970;28;20193;-91
2021/10/10 03:43:33;;;;;;;5.77;3.03;;;11.80;99.90;;;;;;5018132;28;20322;-91
2021/10/10 03:46:05;;;;;;;4.87;2.77;;;11.90;99.90;;;;;;5013867;28;20214;-91
2021/10/10 03:48:37;;;;;;;3.53;2.70;;;11.90;99.90;;;;;;5016125;28;20265;-91
2021/10/10 03:51:09;;;;;;;4.63;2.70;;;12.00;99.90;;;;;;5018285;28;20194;-91
2021/10/10 03:56:29;;;;;;;4.03;2.93;;;12.00;99.90;;;;;;4999506;28;20338;-91
2021/10/10 03:59:03;;;;;;;4.47;2.90;;;12.00;99.90;;;;;;5014879;28;20222;-90
2021/10/10 04:01:37;;;;;;;3.33;2.57;;;12.00;99.90;;;;;;5013558;28;20199;-90
2021/10/10 04:06:52;;;;;;;6.87;2.90;;;12.00;99.90;;;;;;5553474;23;20269;-90
2021/10/10 04:09:27;;;;;;;5.13;2.73;;;12.10;99.90;;;;;;5014314;28;20210;-89
2021/10/10 04:12:00;;;;;;;4.90;2.70;;;12.10;99.90;;;;;;5052249;22;20243;-90
2021/10/10 04:14:32;;;;;;;5.77;2.70;;;12.10;99.90;;;;;;5034111;28;20194;-90
2021/10/10 04:17:04;;;;;;;9.83;2.83;;;12.00;99.90;;;;;;5016383;28;20262;-90
2021/10/10 04:19:36;;;;;;;4.93;2.20;;;12.00;99.90;;;;;;5033504;28;20312;-91
2021/10/10 04:22:07;;;;;;;3.37;2.60;;;12.00;99.90;;;;;;5026996;28;20558;-91
2021/10/10 04:24:39;;;;;;;5.13;2.40;;;12.00;99.90;;;;;;5032154;28;20189;-91
2021/10/10 04:27:11;;;;;;;3.73;2.20;;;11.90;99.90;;;;;;5037204;28;20226;-90
2021/10/10 04:29:47;;;;;;;5.33;2.20;;;12.00;99.90;;;;;;5037475;28;20204;-91
2021/10/10 04:32:21;;;;;;;2.90;1.97;;;12.00;99.90;;;;;;5018428;28;20754;-91
2021/10/10 04:34:53;;;;;;;3.70;2.30;;;12.00;99.90;;;;;;5039233;28;20222;-93
2021/10/10 04:37:24;;;;;;;10.10;9.40;;;12.00;99.90;;;;;;5040101;28;20219;-90
2021/10/10 04:39:58;;;;;;;3.03;2.00;;;12.00;99.90;;;;;;5021412;28;20190;-91
2021/10/10 04:42:30;;;;;;;3.90;3.50;;;12.00;99.90;;;;;;5022054;28;20263;-91
2021/10/10 04:45:01;;;;;;;3.30;2.00;;;11.90;99.90;;;;;;5023554;28;20210;-90
2021/10/10 04:47:35;;;;;;;3.10;1.87;;;11.90;99.90;;;;;;5022137;28;20257;-90
2021/10/10 04:50:07;;;;;;;4.27;1.83;;;11.80;99.90;;;;;;5020822;28;20228;-91
2021/10/10 04:52:39;;;;;;;2.97;1.90;;;11.70;99.90;;;;;;5019147;28;20217;-90
2021/10/10 04:55:14;;;;;;;2.80;1.83;;;11.70;99.90;;;;;;5022958;28;20229;-90
2021/10/10 05:08:23;;;;;;;3.80;2.00;;;11.70;99.90;;;;;;5019239;27;3386180;-90
2021/10/10 05:10:54;;;;;;;3.40;2.40;;;11.60;99.90;;;;;;5115514;28;20215;-91
2021/10/10 05:13:25;;;;;;;3.87;2.40;;;11.60;99.90;;;;;;5097140;28;20259;-90
2021/10/10 05:15:57;;;;;;;5.47;2.60;;;11.60;99.90;;;;;;5118255;28;20237;-91
2021/10/10 05:18:34;;;;;;;3.67;2.20;;;11.60;99.90;;;;;;5120119;28;20190;-91
2021/10/10 05:21:09;;;;;;;2.60;1.97;;;11.60;99.90;;;;;;5129042;28;20206;-91
2021/10/10 05:23:42;;;;;;;3.13;2.17;;;11.60;99.90;;;;;;5122255;28;20202;-90
2021/10/10 05:26:14;;;;;;;4.13;2.30;;;11.60;99.90;;;;;;5118639;28;20210;-91
2021/10/10 05:28:46;;;;;;;2.83;2.30;;;11.60;99.90;;;;;;5123072;28;20216;-91
2021/10/10 05:31:18;;;;;;;2.97;2.33;;;11.60;99.90;;;;;;5095802;28;20221;-92
2021/10/10 05:33:49;;;;;;;2.23;1.90;;;11.60;99.90;;;;;;5078664;28;20207;-91
2021/10/10 05:36:21;;;;;;;4.40;2.20;;;11.60;99.90;;;;;;5093461;28;20284;-92
2021/10/10 05:38:55;;;;;;;3.37;2.20;;;11.50;99.90;;;;;;5094362;28;20234;-92
2021/10/10 05:41:27;;;;;;;2.70;2.23;;;11.50;99.90;;;;;;5093359;28;20207;-91
2021/10/10 05:43:58;;;;;;;3.83;2.10;;;11.50;99.90;;;;;;5076515;28;20234;-92
2021/10/10 05:46:31;;;;;;;4.83;1.97;;;11.50;99.90;;;;;;5093270;28;20577;-92
2021/10/10 05:49:05;;;;;;;2.20;1.90;;;11.50;99.90;;;;;;5093061;28;20561;-92
2021/10/10 05:51:36;;;;;;;3.87;1.90;;;11.50;99.90;;;;;;5092169;28;20250;-92
2021/10/10 05:54:11;;;;;;;2.27;1.90;;;11.40;99.90;;;;;;5094323;28;20290;-91
2021/10/10 05:56:42;;;;;;;3.03;2.10;;;11.50;99.90;;;;;;5094787;28;20596;-92
2021/10/10 05:59:15;;;;;;;3.20;1.73;;;11.40;99.90;;;;;;5113509;28;20206;-91
2021/10/10 06:01:47;;;;;;;3.93;2.00;;;11.40;99.90;;;;;;5113588;28;20206;-90
2021/10/10 06:04:19;;;;;;;5.00;1.97;;;11.40;99.90;;;;;;5113389;28;20267;-90
2021/10/10 06:06:50;;;;;;;2.03;1.83;;;11.40;99.90;;;;;;5111938;28;20227;-90
2021/10/10 06:09:23;;;;;;;3.10;1.87;;;11.40;99.90;;;;;;5099855;28;20199;-91
2021/10/10 06:11:54;;;;;;;4.40;2.57;;;11.40;99.90;;;;;;5099434;28;20234;-90
2021/10/10 06:14:28;;;;;;;3.87;1.70;;;11.40;99.90;;;;;;5099706;28;20218;-91
2021/10/10 06:16:59;;;;;;;3.17;2.07;;;11.30;99.90;;;;;;5100822;28;20254;-91
2021/10/10 06:19:32;;;;;;;2.10;1.80;;;11.30;99.90;;;;;;5102051;28;20285;-91
2021/10/10 06:22:05;;;;;;;2.53;1.90;;;11.30;99.90;;;;;;5074896;23;20336;-89
2021/10/10 06:24:38;;;;;;;2.67;1.80;;;11.30;99.90;;;;;;5020743;28;20221;-90
2021/10/10 06:27:28;;;;;;;4.17;1.70;;;11.30;99.90;;;;;;5021206;28;20213;-89
2021/10/10 06:30:09;;;;;;;2.80;1.83;;;11.30;99.90;;;;;;5024956;28;20683;-91
2021/10/10 06:32:41;;;;;;;2.07;1.90;;;11.30;99.90;;;;;;5077377;23;20238;-90
2021/10/10 06:35:12;;;;;;;2.40;1.70;;;11.30;99.90;;;;;;4986910;28;20206;-90
2021/10/10 06:37:44;;;;;;;2.57;1.67;;;11.20;99.90;;;;;;5006442;28;20238;-91
2021/10/10 06:40:19;;;;;;;3.43;1.90;;;11.20;99.90;;;;;;5011564;28;20225;-90
2021/10/10 06:42:51;;;;;;;3.33;2.30;;;11.20;99.90;;;;;;5005046;28;20201;-90
2021/10/10 06:45:23;;;;;;;3.07;2.00;;;11.20;99.90;;;;;;5002168;28;20213;-90
2021/10/10 06:55:49;;;;;;;3.17;2.20;;;11.10;99.90;;;;;;5023933;28;20229;-92
2021/10/10 06:58:22;;;;;;;2.47;2.00;;;11.10;99.90;;;;;;5030984;28;20221;-90
2021/10/10 07:00:55;;;;;;;4.90;2.10;;;11.10;99.90;;;;;;5033709;28;20276;-89
2021/10/10 07:03:27;;;;;;;2.60;1.77;;;11.10;99.90;;;;;;5026063;28;20233;-90
2021/10/10 07:05:58;;;;;;;3.43;2.13;;;11.10;99.90;;;;;;5020569;28;20272;-90
2021/10/10 07:08:32;;;;;;;6.23;2.07;;;11.20;99.90;;;;;;5022364;28;20206;-90
2021/10/10 07:11:09;;;;;;;4.10;1.80;;;11.20;99.90;;;;;;5020251;28;20678;-90
2021/10/10 07:13:41;;;;;;;2.30;1.73;;;11.20;99.90;;;;;;5021176;28;20221;-90
2021/10/10 07:16:22;;;;;;;4.43;2.00;;;11.20;99.90;;;;;;5022663;28;20208;-90
2021/10/10 07:18:55;;;;;;;3.40;1.80;;;11.20;99.90;;;;;;5021424;28;20236;-89
2021/10/10 07:21:39;;;;;;;2.30;1.80;;;11.20;99.90;;;;;;5019241;28;20210;-89
2021/10/10 07:27:14;;;;;;;6.63;2.00;;;11.20;99.90;;;;;;5011157;28;20591;-89
2021/10/10 07:29:58;;;;;;;2.87;1.83;;;11.20;99.90;;;;;;5018271;28;20198;-89
2021/10/10 07:32:30;;;;;;;4.23;1.90;;;11.10;99.90;;;;;;5028248;28;20206;-90
2021/10/10 07:35:03;;;;;;;3.13;1.90;;;11.10;99.90;;;;;;5018730;28;20446;-90
2021/10/10 07:37:35;;;;;;;5.20;2.10;;;11.10;99.90;;;;;;5017634;28;20265;-91
2021/10/10 07:40:08;;;;;;;7.07;2.07;;;11.10;99.90;;;;;;5011115;28;20211;-91
2021/10/10 07:42:44;;;;;;;2.67;2.10;;;11.10;99.90;;;;;;4983785;28;20206;-91
2021/10/10 07:45:18;;;;;;;3.27;1.90;;;11.00;99.90;;;;;;5001176;28;20209;-91
2021/10/10 07:47:51;;;;;;;3.60;2.20;;;11.00;99.90;;;;;;4999021;28;20607;-91
2021/10/10 07:50:23;;;;;;;4.20;2.27;;;11.00;99.90;;;;;;4999223;28;20210;-91
2021/10/10 07:52:55;;;;;;;5.87;2.37;;;11.00;99.90;;;;;;5002594;28;20245;-91
2021/10/10 07:55:26;;;;;;;3.03;2.70;;;11.00;99.90;;;;;;5004157;28;20221;-91
2021/10/10 07:58:02;;;;;;;3.30;2.70;;;11.00;99.90;;;;;;5018658;28;20241;-90
2021/10/10 08:00:36;;;;;;;3.87;2.50;;;11.00;99.90;;;;;;5019287;28;20212;-90
2021/10/10 08:03:08;;;;;;;3.40;2.90;;;11.00;99.90;;;;;;5017001;28;20209;-90
2021/10/10 08:05:42;;;;;;;6.87;2.80;;;11.00;99.90;;;;;;5018578;28;20236;-90
2021/10/10 08:08:14;;;;;;;3.23;2.43;;;11.00;99.90;;;;;;5018824;28;20236;-89
2021/10/10 08:10:46;;;;;;;4.57;2.80;;;11.00;99.90;;;;;;5017522;28;20254;-90
2021/10/10 08:13:19;;;;;;;3.97;2.60;;;11.00;99.90;;;;;;5018438;28;20585;-90
2021/10/10 08:15:51;;;;;;;4.90;3.10;;;11.00;99.90;;;;;;5017244;28;20220;-91
2021/10/10 08:18:22;;;;;;;4.87;3.37;;;11.00;99.90;;;;;;5017430;28;20247;-90
2021/10/10 08:20:54;;;;;;;6.87;3.23;;;11.00;99.90;;;;;;5016848;28;20210;-91
2021/10/10 08:23:26;;;;;;;7.23;3.80;;;11.00;99.90;;;;;;5016756;28;20224;-88
2021/10/10 08:25:57;;;;;;;7.07;4.13;;;11.00;99.90;;;;;;5016562;28;20224;-89
2021/10/10 08:28:30;;;;;;;5.10;3.53;;;11.00;99.90;;;;;;5017422;28;20220;-89
2021/10/10 08:31:02;;;;;;;3.83;3.37;;;11.00;99.90;;;;;;5017070;28;20236;-90
2021/10/10 08:33:34;;;;;;;5.43;3.70;;;11.10;99.90;;;;;;5017407;28;20300;-89
2021/10/10 08:36:08;;;;;;;4.47;3.40;;;11.10;99.90;;;;;;5017129;28;20237;-91
2021/10/10 08:38:39;;;;;;;3.87;3.40;;;11.10;99.90;;;;;;5017162;28;20296;-90
2021/10/10 08:41:12;;;;;;;6.63;3.03;;;11.10;99.90;;;;;;5017547;28;20244;-90
2021/10/10 08:43:47;;;;;;;5.93;2.87;;;11.10;99.90;;;;;;5016532;28;20217;-90
2021/10/10 08:46:24;;;;;;;8.50;2.77;;;11.20;99.90;;;;;;5016997;28;20212;-91
2021/10/10 08:48:56;;;;;;;3.23;2.43;;;11.20;99.90;;;;;;5017639;28;20216;-91
2021/10/10 08:51:27;;;;;;;3.57;2.60;;;11.20;99.90;;;;;;5017925;28;20232;-90
2021/10/10 08:54:02;;;;;;;4.53;2.67;;;11.20;99.90;;;;;;5019716;28;20265;-91
2021/10/10 08:56:34;;;;;;;4.90;2.80;;;11.30;99.90;;;;;;5018332;28;20734;-92
2021/10/10 08:59:06;;;;;;;5.37;3.20;;;11.30;99.90;;;;;;5021952;28;20269;-91
2021/10/10 09:01:39;;;;;;;3.83;2.60;;;11.30;99.90;;;;;;5017086;28;20257;-91
2021/10/10 09:04:12;;;;;;;8.10;2.97;;;11.30;99.90;;;;;;5012145;28;20265;-90
2021/10/10 09:06:44;;;;;;;5.30;2.70;;;11.30;99.90;;;;;;4999553;28;20210;-91
2021/10/10 09:09:32;;;;;;;6.57;2.50;;;11.30;99.90;;;;;;4998595;28;20234;-91
2021/10/10 09:12:04;;;;;;;4.90;2.40;;;11.30;99.90;;;;;;4997905;28;20211;-91
2021/10/10 09:14:50;;;;;;;5.03;2.33;;;11.40;99.90;;;;;;5045386;23;20292;-91
2021/10/10 09:17:23;;;;;;;3.60;1.80;;;11.40;99.90;;;;;;5016347;28;20228;-91
2021/10/10 09:19:56;;;;;;;4.77;1.93;;;11.40;99.90;;;;;;5015847;28;20241;-91
2021/10/10 09:22:28;;;;;;;6.83;2.07;;;11.30;99.90;;;;;;5015733;28;20217;-91
2021/10/10 09:25:11;;;;;;;4.73;1.60;;;11.00;99.90;;;;;;5015359;28;20213;-91
2021/10/10 09:27:43;;;;;;;7.67;1.90;;;10.60;99.90;;;;;;5015008;28;20212;-90
2021/10/10 09:30:20;;;;;;;10.20;2.10;;;10.40;99.90;;;;;;4997095;28;20407;-91
2021/10/10 09:32:56;;;;;;;9.53;2.17;;;10.00;99.90;;;;;;4652054;28;9999600;-92
2021/10/10 09:35:29;;;;;;;9.17;2.60;;;9.80;99.90;;;;;;4979917;28;20454;-91
2021/10/10 09:38:14;;;;;;;6.37;2.50;;;9.70;99.90;;;;;;4996975;28;20198;-91
2021/10/10 09:40:51;;;;;;;12.17;2.67;;;9.60;99.90;;;;;;4997392;28;20676;-91
2021/10/10 09:43:23;;;;;;;15.13;2.40;;;9.50;99.90;;;;;;4998052;28;20210;-91
2021/10/10 09:45:58;;;;;;;12.77;3.10;;;9.50;99.90;;;;;;4999589;28;20233;-92
2021/10/10 09:48:35;;;;;;;8.97;2.47;;;9.40;99.90;;;;;;5000151;28;20206;-91
2021/10/10 09:51:06;;;;;;;12.00;2.97;;;9.40;99.90;;;;;;5000538;28;20249;-92
2021/10/10 09:53:37;;;;;;;9.80;2.60;;;9.40;99.90;;;;;;5000860;28;20209;-91
2021/10/10 09:56:11;;;;;;;6.43;2.77;;;9.40;99.90;;;;;;5013700;28;20221;-92
2021/10/10 09:58:44;;;;;;;8.97;2.83;;;9.40;99.90;;;;;;5019598;28;20248;-91
2021/10/10 10:01:18;;;;;;;15.47;2.53;;;9.30;99.90;;;;;;5018494;28;20268;-91
2021/10/10 10:04:01;;;;;;;13.20;3.00;;;9.30;99.90;;;;;;5019488;28;20213;-91
2021/10/10 10:06:34;;;;;;;15.27;3.20;;;9.30;99.90;;;;;;4998463;28;20240;-90
2021/10/10 10:09:07;;;;;;;13.17;2.80;;;9.30;99.90;;;;;;4999744;28;20245;-90
2021/10/10 10:11:40;;;;;;;11.43;3.20;;;9.40;99.90;;;;;;5002134;28;20253;-90
2021/10/10 10:14:14;;;;;;;13.20;3.67;;;9.40;99.90;;;;;;5000871;28;20633;-90
2021/10/10 10:16:49;;;;;;;9.97;3.03;;;9.40;99.90;;;;;;5000597;28;20217;-90
2021/10/10 10:19:22;;;;;;;9.50;2.87;;;9.40;99.90;;;;;;5001141;28;20225;-91
2021/10/10 10:21:55;;;;;;;14.47;3.13;;;9.40;99.90;;;;;;4999606;28;20223;-91
2021/10/10 10:24:30;;;;;;;11.73;3.30;;;9.30;99.90;;;;;;4999938;28;20245;-90
2021/10/10 10:27:02;;;;;;;13.97;2.80;;;9.40;99.90;;;;;;5000699;28;20271;-90
2021/10/10 10:29:35;;;;;;;12.67;2.67;;;9.40;99.90;;;;;;5001006;28;20241;-90
2021/10/10 10:32:12;;;;;;;12.07;3.13;;;9.40;99.90;;;;;;4999978;28;20224;-91
2021/10/10 10:35:00;;;;;;;18.57;3.30;;;9.40;99.90;;;;;;5000502;28;20214;-91
2021/10/10 10:37:57;;;;;;;18.13;2.97;;;9.30;99.90;;;;;;4999766;28;20264;-91
2021/10/10 10:40:39;;;;;;;14.37;3.30;;;9.20;99.90;;;;;;5001598;28;20336;-91
2021/10/10 10:43:14;;;;;;;21.30;3.53;;;9.30;99.90;;;;;;5045698;23;20261;-92
2021/10/10 10:45:48;;;;;;;10.23;3.20;;;9.40;99.90;;;;;;5019087;28;20271;-91
2021/10/10 10:48:39;;;;;;;13.90;3.47;;;9.40;99.90;;;;;;5018829;28;20209;-92
2021/10/10 10:51:26;;;;;;;18.10;3.37;;;9.40;99.90;;;;;;5018287;28;20255;-92
2021/10/10 10:54:41;;;;;;;9.67;2.90;;;9.30;99.90;;;;;;5018927;28;20201;-91
2021/10/10 10:57:43;;;;;;;10.07;3.10;;;9.30;99.90;;;;;;5019779;28;20587;-91
2021/10/10 11:00:17;;;;;;;12.07;3.47;;;9.20;99.90;;;;;;5019382;28;20243;-91
2021/10/10 11:02:53;;;;;;;14.80;3.73;;;9.20;99.90;;;;;;5017865;28;20288;-91
2021/10/10 11:05:47;;;;;;;15.03;3.27;;;9.20;99.90;;;;;;5018225;28;20241;-90
2021/10/10 11:08:41;;;;;;;16.50;3.03;;;9.20;99.90;;;;;;5021355;28;20214;-91
2021/10/10 11:11:23;;;;;;;11.30;2.90;;;9.20;99.90;;;;;;5038303;28;20214;-89
2021/10/10 11:13:58;;;;;;;14.03;2.83;;;9.20;99.90;;;;;;5037461;28;20219;-90
2021/10/10 11:16:34;;;;;;;15.10;3.40;;;9.20;99.90;;;;;;5019522;28;20213;-90
2021/10/10 11:19:08;;;;;;;12.17;3.13;;;9.20;99.90;;;;;;5018893;28;20233;-91
2021/10/10 11:21:42;;;;;;;14.47;3.50;;;9.20;99.90;;;;;;5017379;28;20243;-90
2021/10/10 11:24:19;;;;;;;15.53;2.93;;;9.20;99.90;;;;;;5018539;28;20684;-90
2021/10/10 11:26:51;;;;;;;10.87;2.70;;;9.20;99.90;;;;;;5017903;28;20233;-90
2021/10/10 11:29:24;;;;;;;14.73;2.90;;;9.20;99.90;;;;;;4999089;28;20218;-91
2021/10/10 11:31:56;;;;;;;19.57;3.43;;;9.20;99.90;;;;;;4999169;28;20681;-90
2021/10/10 11:34:28;;;;;;;17.00;3.20;;;9.20;99.90;;;;;;4998712;28;20283;-90
2021/10/10 11:37:01;;;;;;;14.30;3.67;;;9.20;99.90;;;;;;4997978;28;20296;-91
2021/10/10 11:39:34;;;;;;;9.20;2.33;;;9.20;99.90;;;;;;5000555;28;20308;-91
2021/10/10 11:42:07;;;;;;;16.37;3.20;;;9.20;99.90;;;;;;4982893;28;20265;-90
2021/10/10 11:44:40;;;;;;;10.23;2.83;;;9.20;99.90;;;;;;4979275;28;20233;-91
2021/10/10 11:47:22;;;;;;;13.90;3.10;;;9.10;99.90;;;;;;4978551;28;20211;-91
2021/10/10 11:50:00;;;;;;;15.73;3.30;;;9.20;99.90;;;;;;4980157;28;20237;-90
2021/10/10 11:52:36;;;;;;;15.70;3.70;;;9.20;99.90;;;;;;4979416;28;20221;-91
2021/10/10 11:55:11;;;;;;;17.17;3.20;;;9.20;99.90;;;;;;4979170;28;20222;-90
2021/10/10 11:57:43;;;;;;;13.57;2.90;;;9.20;99.90;;;;;;4979049;28;20206;-90
2021/10/10 12:00:18;;;;;;;13.13;3.30;;;9.20;99.90;;;;;;4979143;28;20308;-89
2021/10/10 12:02:51;;;;;;;11.93;3.07;;;9.20;99.90;;;;;;4979365;28;20206;-90
2021/10/10 12:05:23;;;;;;;20.57;3.13;;;9.10;99.90;;;;;;4978251;28;20218;-90
2021/10/10 12:07:56;;;;;;;22.33;4.20;;;9.10;99.90;;;;;;4978977;28;20203;-90
2021/10/10 12:10:35;;;;;;;16.10;3.47;;;9.10;99.90;;;;;;4979035;28;20220;-90
2021/10/10 12:13:06;;;;;;;16.97;3.83;;;9.10;99.90;;;;;;4979355;28;20206;-90
2021/10/10 12:15:37;;;;;;;11.20;2.83;;;9.10;99.90;;;;;;4978757;28;20236;-89
2021/10/10 12:18:14;;;;;;;17.10;3.80;;;9.10;99.90;;;;;;4979115;28;20217;-90
2021/10/10 12:20:46;;;;;;;18.90;3.93;;;9.10;99.90;;;;;;4979669;28;20293;-90
2021/10/10 12:23:19;;;;;;;18.37;3.90;;;9.00;99.90;;;;;;4981447;28;20235;-90
2021/10/10 12:26:00;;;;;;;16.10;3.63;;;9.00;99.90;;;;;;4996301;28;20210;-91
2021/10/10 12:28:36;;;;;;;13.63;3.63;;;9.00;99.90;;;;;;4996875;28;20195;-91
2021/10/10 12:31:08;;;;;;;13.73;3.17;;;9.00;99.90;;;;;;4997853;28;20195;-92
2021/10/10 12:33:41;;;;;;;11.73;3.03;;;9.00;99.90;;;;;;4997456;28;20190;-92
2021/10/10 12:36:16;;;;;;;14.77;3.80;;;9.00;99.90;;;;;;4997299;28;20191;-91
2021/10/10 12:38:54;;;;;;;18.07;3.73;;;8.90;99.90;;;;;;5005099;28;20190;-92
2021/10/10 12:41:27;;;;;;;15.50;3.40;;;8.80;99.90;;;;;;5016673;28;20230;-91
2021/10/10 12:44:15;;;;;;;17.77;3.90;;;8.90;99.90;;;;;;5016935;28;20198;-92
2021/10/10 12:46:52;;;;;;;14.23;3.10;;;8.90;99.90;;;;;;5016654;28;20197;-93
2021/10/10 12:49:34;;;;;;;12.57;3.30;;;8.90;99.90;;;;;;5013854;28;20230;-91
2021/10/10 12:52:08;;;;;;;18.03;3.30;;;8.80;99.90;;;;;;5012913;28;20269;-92
2021/10/10 12:54:46;;;;;;;14.43;3.23;;;8.80;99.90;;;;;;5009935;28;20225;-91
2021/10/10 12:57:18;;;;;;;10.07;2.90;;;8.80;99.90;;;;;;4991054;28;20211;-92
2021/10/10 12:59:53;;;;;;;14.87;3.50;;;8.80;99.90;;;;;;4991418;28;20211;-90
2021/10/10 13:02:24;;;;;;;17.07;3.43;;;8.80;99.90;;;;;;4982439;28;20229;-91
2021/10/10 13:04:56;;;;;;;13.93;3.10;;;8.80;99.90;;;;;;4979760;28;20293;-92
2021/10/10 13:07:29;;;;;;;14.87;3.27;;;8.80;99.90;;;;;;4990296;28;20208;-91
2021/10/10 13:10:03;;;;;;;17.67;3.40;;;8.70;99.90;;;;;;5001370;28;20225;-91
2021/10/10 13:12:34;;;;;;;15.57;3.10;;;8.70;99.90;;;;;;5000500;28;20206;-91
2021/10/10 13:15:06;;;;;;;16.07;4.57;;;8.80;99.90;;;;;;5000738;28;20688;-91
2021/10/10 13:17:38;;;;;;;16.80;3.37;;;8.80;99.90;;;;;;5003923;28;20206;-90
2021/10/10 13:20:11;;;;;;;10.57;2.90;;;8.70;99.90;;;;;;5021025;28;20288;-91
2021/10/10 13:22:42;;;;;;;13.33;3.73;;;8.80;99.90;;;;;;5020542;28;20209;-90
2021/10/10 13:25:15;;;;;;;12.63;3.23;;;8.90;99.90;;;;;;5012897;28;20663;-91
2021/10/10 13:27:50;;;;;;;11.40;2.73;;;8.90;99.90;;;;;;5004106;28;20244;-91
2021/10/10 13:30:21;;;;;;;14.83;3.20;;;8.90;99.90;;;;;;5006701;28;20226;-91
2021/10/10 13:32:53;;;;;;;14.57;3.33;;;8.90;99.90;;;;;;5004225;28;20245;-91
2021/10/10 13:35:24;;;;;;;12.27;3.10;;;9.00;99.90;;;;;;5001548;28;20202;-90
2021/10/10 13:37:55;;;;;;;14.40;2.63;;;9.00;99.90;;;;;;5002387;28;20220;-90
2021/10/10 13:40:33;;;;;;;13.20;2.90;;;8.90;99.90;;;;;;5002337;28;20241;-91
2021/10/10 13:43:05;;;;;;;13.23;4.13;;;8.90;99.90;;;;;;5002156;28;20579;-91
2021/10/10 13:45:39;;;;;;;15.77;3.30;;;8.90;99.90;;;;;;5001954;28;20207;-91
2021/10/10 13:48:11;;;;;;;12.33;2.83;;;8.90;99.90;;;;;;5002312;28;20242;-90
2021/10/10 13:50:42;;;;;;;11.70;2.63;;;8.90;99.90;;;;;;5002647;28;20245;-91
2021/10/10 13:53:14;;;;;;;14.27;3.57;;;8.90;99.90;;;;;;5003076;28;20236;-91
2021/10/10 13:55:48;;;;;;;12.27;2.83;;;9.00;99.90;;;;;;5001698;28;20268;-91
2021/10/10 13:58:21;;;;;;;12.17;3.00;;;8.90;99.90;;;;;;5001839;28;20217;-91